sensor_id;sensor_type;location;lat;lon;timestamp;pressure;altitude;pressure_sealevel;temperature;humidity
58955;BME280;45815;52.334;5.024;2023-03-01T00:02:20;103280.88;;;2.39;100.00
58955;BME280;45815;52.334;5.024;2023-03-01T00:04:46;103285.03;;;2.37;100.00
58955;BME280;45815;52.334;5.024;2023-03-01T00:07:11;103290.69;;;2.32;100.00
58955;BME280;45815;52.334;5.024;2023-03-01T00:09:37;103276.09;;;2.24;100.00
58955;BME280;45815;52.334;5.024;2023-03-01T00:12:03;103279.97;;;2.19;100.00
58955;BME280;45815;52.334;5.024;2023-03-01T00:14:29;103283.03;;;2.15;100.00
58955;BME280;45815;52.334;5.024;2023-03-01T00:16:54;103257.88;;;1.95;100.00
58955;BME280;45815;52.334;5.024;2023-03-01T00:19:20;103280.84;;;2.01;100.00
58955;BME280;45815;52.334;5.024;2023-03-01T00:21:47;103284.41;;;1.93;100.00
58955;BME280;45815;52.334;5.024;2023-03-01T00:24:13;103263.03;;;1.76;100.00
58955;BME280;45815;52.334;5.024;2023-03-01T00:26:39;103280.69;;;1.80;100.00
58955;BME280;45815;52.334;5.024;2023-03-01T00:29:04;103267.31;;;1.76;100.00
58955;BME280;45815;52.334;5.024;2023-03-01T00:31:32;103269.75;;;1.74;100.00
58955;BME280;45815;52.334;5.024;2023-03-01T00:34:03;103269.31;;;1.69;100.00
58955;BME280;45815;52.334;5.024;2023-03-01T00:36:32;103265.50;;;1.66;100.00
58955;BME280;45815;52.334;5.024;2023-03-01T00:38:58;103265.69;;;1.59;100.00
58955;BME280;45815;52.334;5.024;2023-03-01T00:41:25;103265.16;;;1.53;100.00
58955;BME280;45815;52.334;5.024;2023-03-01T00:43:54;103266.06;;;1.44;100.00
58955;BME280;45815;52.334;5.024;2023-03-01T00:46:22;103252.75;;;1.31;100.00
58955;BME280;45815;52.334;5.024;2023-03-01T00:48:48;103268.56;;;1.34;100.00
58955;BME280;45815;52.334;5.024;2023-03-01T00:51:19;103264.75;;;1.31;100.00
58955;BME280;45815;52.334;5.024;2023-03-01T00:53:46;103262.78;;;1.28;100.00
58955;BME280;45815;52.334;5.024;2023-03-01T00:56:13;103254.91;;;1.26;100.00
58955;BME280;45815;52.334;5.024;2023-03-01T00:58:39;103249.75;;;1.18;100.00
58955;BME280;45815;52.334;5.024;2023-03-01T01:01:18;103257.25;;;1.15;100.00
58955;BME280;45815;52.334;5.024;2023-03-01T01:06:14;103251.94;;;1.04;100.00
58955;BME280;45815;52.334;5.024;2023-03-01T01:08:40;103249.97;;;1.02;100.00
58955;BME280;45815;52.334;5.024;2023-03-01T01:11:05;103261.97;;;1.01;100.00
58955;BME280;45815;52.334;5.024;2023-03-01T01:13:30;103257.28;;;0.97;100.00
58955;BME280;45815;52.334;5.024;2023-03-01T01:16:01;103239.66;;;0.84;100.00
58955;BME280;45815;52.334;5.024;2023-03-01T01:18:26;103249.84;;;0.92;100.00
58955;BME280;45815;52.334;5.024;2023-03-01T01:20:52;103223.72;;;0.80;100.00
58955;BME280;45815;52.334;5.024;2023-03-01T01:23:18;103242.38;;;0.86;100.00
58955;BME280;45815;52.334;5.024;2023-03-01T01:25:43;103235.88;;;0.81;100.00
58955;BME280;45815;52.334;5.024;2023-03-01T01:28:08;103229.34;;;0.76;100.00
58955;BME280;45815;52.334;5.024;2023-03-01T01:30:34;103222.22;;;0.73;100.00
58955;BME280;45815;52.334;5.024;2023-03-01T01:32:59;103228.00;;;0.71;100.00
58955;BME280;45815;52.334;5.024;2023-03-01T01:35:25;103220.84;;;0.68;100.00
58955;BME280;45815;52.334;5.024;2023-03-01T01:37:50;103217.94;;;0.65;100.00
58955;BME280;45815;52.334;5.024;2023-03-01T01:40:15;103218.56;;;0.62;100.00
58955;BME280;45815;52.334;5.024;2023-03-01T01:42:41;103214.63;;;0.57;100.00
58955;BME280;45815;52.334;5.024;2023-03-01T01:45:30;103214.50;;;0.47;100.00
58955;BME280;45815;52.334;5.024;2023-03-01T01:48:00;103214.63;;;0.49;100.00
58955;BME280;45815;52.334;5.024;2023-03-01T01:50:28;103214.19;;;0.44;100.00
58955;BME280;45815;52.334;5.024;2023-03-01T01:53:05;103203.72;;;0.43;100.00
58955;BME280;45815;52.334;5.024;2023-03-01T01:55:32;103207.94;;;0.42;100.00
58955;BME280;45815;52.334;5.024;2023-03-01T01:58:01;103206.91;;;0.40;100.00
58955;BME280;45815;52.334;5.024;2023-03-01T02:00:30;103211.31;;;0.41;100.00
58955;BME280;45815;52.334;5.024;2023-03-01T02:02:59;103213.59;;;0.38;100.00
58955;BME280;45815;52.334;5.024;2023-03-01T02:05:36;103204.91;;;0.37;100.00
58955;BME280;45815;52.334;5.024;2023-03-01T02:08:04;103211.03;;;0.38;100.00
58955;BME280;45815;52.334;5.024;2023-03-01T02:10:32;103209.03;;;0.35;100.00
58955;BME280;45815;52.334;5.024;2023-03-01T02:13:00;103214.81;;;0.33;100.00
58955;BME280;45815;52.334;5.024;2023-03-01T02:15:25;103192.03;;;0.20;100.00
58955;BME280;45815;52.334;5.024;2023-03-01T02:17:52;103202.19;;;0.27;100.00
58955;BME280;45815;52.334;5.024;2023-03-01T02:23:05;103199.78;;;0.29;100.00
58955;BME280;45815;52.334;5.024;2023-03-01T02:25:57;103194.91;;;0.32;100.00
58955;BME280;45815;52.334;5.024;2023-03-01T02:28:32;103190.03;;;0.44;100.00
58955;BME280;45815;52.334;5.024;2023-03-01T02:30:58;103201.25;;;0.44;100.00
58955;BME280;45815;52.334;5.024;2023-03-01T02:33:43;103195.03;;;0.42;100.00
58955;BME280;45815;52.334;5.024;2023-03-01T02:36:14;103179.69;;;0.35;100.00
58955;BME280;45815;52.334;5.024;2023-03-01T02:38:41;103190.34;;;0.38;100.00
58955;BME280;45815;52.334;5.024;2023-03-01T02:41:08;103192.78;;;0.36;100.00
58955;BME280;45815;52.334;5.024;2023-03-01T02:43:36;103191.88;;;0.36;100.00
58955;BME280;45815;52.334;5.024;2023-03-01T02:46:12;103184.84;;;0.35;100.00
58955;BME280;45815;52.334;5.024;2023-03-01T02:48:41;103191.88;;;0.36;100.00
58955;BME280;45815;52.334;5.024;2023-03-01T02:51:29;103184.56;;;0.32;100.00
58955;BME280;45815;52.334;5.024;2023-03-01T02:54:21;103179.13;;;0.29;100.00
58955;BME280;45815;52.334;5.024;2023-03-01T02:56:49;103179.41;;;0.32;100.00
58955;BME280;45815;52.334;5.024;2023-03-01T02:59:20;103178.50;;;0.31;100.00
58955;BME280;45815;52.334;5.024;2023-03-01T03:01:47;103175.91;;;0.31;100.00
58955;BME280;45815;52.334;5.024;2023-03-01T03:04:17;103169.22;;;0.25;100.00
58955;BME280;45815;52.334;5.024;2023-03-01T03:06:49;103168.16;;;0.23;100.00
58955;BME280;45815;52.334;5.024;2023-03-01T03:09:15;103172.59;;;0.24;100.00
58955;BME280;45815;52.334;5.024;2023-03-01T03:11:42;103161.19;;;0.22;100.00
58955;BME280;45815;52.334;5.024;2023-03-01T03:14:10;103150.56;;;0.10;100.00
58955;BME280;45815;52.334;5.024;2023-03-01T03:16:44;103158.44;;;0.11;100.00
58955;BME280;45815;52.334;5.024;2023-03-01T03:19:10;103156.03;;;0.04;100.00
58955;BME280;45815;52.334;5.024;2023-03-01T03:21:36;103161.19;;;0.04;100.00
58955;BME280;45815;52.334;5.024;2023-03-01T03:24:02;103147.22;;;0.02;100.00
58955;BME280;45815;52.334;5.024;2023-03-01T03:26:28;103149.66;;;0.01;100.00
58955;BME280;45815;52.334;5.024;2023-03-01T03:28:54;103142.38;;;-0.04;100.00
58955;BME280;45815;52.334;5.024;2023-03-01T03:31:19;103142.97;;;-0.06;100.00
58955;BME280;45815;52.334;5.024;2023-03-01T03:33:45;103137.53;;;-0.09;100.00
58955;BME280;45815;52.334;5.024;2023-03-01T03:36:18;103135.09;;;-0.16;100.00
58955;BME280;45815;52.334;5.024;2023-03-01T03:38:45;103141.00;;;-0.17;100.00
58955;BME280;45815;52.334;5.024;2023-03-01T03:41:15;103136.28;;;-0.22;100.00
58955;BME280;45815;52.334;5.024;2023-03-01T03:43:42;103130.81;;;-0.25;100.00
58955;BME280;45815;52.334;5.024;2023-03-01T03:46:09;103129.94;;;-0.25;100.00
58955;BME280;45815;52.334;5.024;2023-03-01T03:48:40;103124.00;;;-0.24;100.00
58955;BME280;45815;52.334;5.024;2023-03-01T03:51:09;103128.09;;;-0.26;100.00
58955;BME280;45815;52.334;5.024;2023-03-01T03:53:35;103129.75;;;-0.27;100.00
58955;BME280;45815;52.334;5.024;2023-03-01T03:56:00;103127.19;;;-0.27;100.00
58955;BME280;45815;52.334;5.024;2023-03-01T03:58:26;103135.69;;;-0.28;100.00
58955;BME280;45815;52.334;5.024;2023-03-01T04:00:54;103141.75;;;-0.27;100.00
58955;BME280;45815;52.334;5.024;2023-03-01T04:03:21;103132.94;;;-0.29;100.00
58955;BME280;45815;52.334;5.024;2023-03-01T04:05:49;103139.00;;;-0.29;100.00
58955;BME280;45815;52.334;5.024;2023-03-01T04:08:16;103141.16;;;-0.25;100.00
58955;BME280;45815;52.334;5.024;2023-03-01T04:10:46;103128.25;;;-0.25;100.00
58955;BME280;45815;52.334;5.024;2023-03-01T04:13:16;103130.19;;;-0.31;100.00
58955;BME280;45815;52.334;5.024;2023-03-01T04:15:42;103135.69;;;-0.28;100.00
58955;BME280;45815;52.334;5.024;2023-03-01T04:18:14;103132.31;;;-0.35;100.00
58955;BME280;45815;52.334;5.024;2023-03-01T04:20:41;103131.59;;;-0.34;100.00
58955;BME280;45815;52.334;5.024;2023-03-01T04:23:09;103130.22;;;-0.39;100.00
58955;BME280;45815;52.334;5.024;2023-03-01T04:28:19;103134.00;;;-0.36;100.00
58955;BME280;45815;52.334;5.024;2023-03-01T04:30:45;103133.25;;;-0.35;100.00
58955;BME280;45815;52.334;5.024;2023-03-01T04:33:11;103125.34;;;-0.36;100.00
58955;BME280;45815;52.334;5.024;2023-03-01T04:35:37;103125.53;;;-0.35;100.00
58955;BME280;45815;52.334;5.024;2023-03-01T04:38:04;103085.56;;;-0.47;100.00
58955;BME280;45815;52.334;5.024;2023-03-01T04:40:30;103119.16;;;-0.30;100.00
58955;BME280;45815;52.334;5.024;2023-03-01T04:42:56;103110.50;;;-0.30;100.00
58955;BME280;45815;52.334;5.024;2023-03-01T04:45:21;103121.13;;;-0.18;100.00
58955;BME280;45815;52.334;5.024;2023-03-01T04:47:47;103118.53;;;-0.18;100.00
58955;BME280;45815;52.334;5.024;2023-03-01T04:50:17;103131.44;;;-0.18;100.00
58955;BME280;45815;52.334;5.024;2023-03-01T04:52:46;103112.31;;;-0.20;100.00
58955;BME280;45815;52.334;5.024;2023-03-01T04:55:13;103115.97;;;-0.18;100.00
58955;BME280;45815;52.334;5.024;2023-03-01T04:57:39;103121.25;;;-0.17;100.00
58955;BME280;45815;52.334;5.024;2023-03-01T05:00:07;103120.34;;;-0.17;100.00
58955;BME280;45815;52.334;5.024;2023-03-01T05:02:53;103097.13;;;-0.26;100.00
58955;BME280;45815;52.334;5.024;2023-03-01T05:05:20;103112.16;;;-0.22;100.00
58955;BME280;45815;52.334;5.024;2023-03-01T05:07:46;103107.44;;;-0.26;100.00
58955;BME280;45815;52.334;5.024;2023-03-01T05:10:11;103106.53;;;-0.27;100.00
58955;BME280;45815;52.334;5.024;2023-03-01T05:12:37;103098.50;;;-0.30;100.00
58955;BME280;45815;52.334;5.024;2023-03-01T05:15:04;103103.94;;;-0.27;100.00
58955;BME280;45815;52.334;5.024;2023-03-01T05:17:33;103096.66;;;-0.22;100.00
58955;BME280;45815;52.334;5.024;2023-03-01T05:19:59;103091.34;;;-0.24;100.00
58955;BME280;45815;52.334;5.024;2023-03-01T05:22:25;103093.03;;;-0.24;100.00
58955;BME280;45815;52.334;5.024;2023-03-01T05:24:50;103087.41;;;-0.20;100.00
58955;BME280;45815;52.334;5.024;2023-03-01T05:27:16;103084.38;;;-0.16;100.00
58955;BME280;45815;52.334;5.024;2023-03-01T05:29:41;103076.19;;;-0.20;100.00
58955;BME280;45815;52.334;5.024;2023-03-01T05:32:07;103073.00;;;-0.27;100.00
58955;BME280;45815;52.334;5.024;2023-03-01T05:34:35;103072.25;;;-0.26;100.00
58955;BME280;45815;52.334;5.024;2023-03-01T05:37:01;103062.66;;;-0.27;100.00
58955;BME280;45815;52.334;5.024;2023-03-01T05:39:28;103052.50;;;-0.34;100.00
58955;BME280;45815;52.334;5.024;2023-03-01T05:41:59;103058.44;;;-0.35;100.00
58955;BME280;45815;52.334;5.024;2023-03-01T05:44:25;103055.84;;;-0.35;100.00
58955;BME280;45815;52.334;5.024;2023-03-01T05:46:51;103042.94;;;-0.44;100.00
58955;BME280;45815;52.334;5.024;2023-03-01T05:49:17;103052.81;;;-0.39;100.00
58955;BME280;45815;52.334;5.024;2023-03-01T05:51:47;103057.03;;;-0.40;100.00
58955;BME280;45815;52.334;5.024;2023-03-01T05:54:13;103058.09;;;-0.38;100.00
58955;BME280;45815;52.334;5.024;2023-03-01T05:56:38;103056.13;;;-0.40;100.00
58955;BME280;45815;52.334;5.024;2023-03-01T05:59:04;103052.50;;;-0.43;100.00
58955;BME280;45815;52.334;5.024;2023-03-01T06:01:31;103054.94;;;-0.44;100.00
58955;BME280;45815;52.334;5.024;2023-03-01T06:03:57;103044.31;;;-0.47;100.00
58955;BME280;45815;52.334;5.024;2023-03-01T06:06:23;103052.03;;;-0.47;100.00
58955;BME280;45815;52.334;5.024;2023-03-01T06:08:53;103055.56;;;-0.47;100.00
58955;BME280;45815;52.334;5.024;2023-03-01T06:11:19;103052.81;;;-0.48;100.00
58955;BME280;45815;52.334;5.024;2023-03-01T06:13:45;103053.44;;;-0.51;100.00
58955;BME280;45815;52.334;5.024;2023-03-01T06:16:10;103056.16;;;-0.49;100.00
58955;BME280;45815;52.334;5.024;2023-03-01T06:18:37;103057.53;;;-0.44;100.00
58955;BME280;45815;52.334;5.024;2023-03-01T06:21:04;103050.06;;;-0.41;100.00
58955;BME280;45815;52.334;5.024;2023-03-01T06:23:30;103029.59;;;-0.48;100.00
58955;BME280;45815;52.334;5.024;2023-03-01T06:25:55;103048.28;;;-0.42;100.00
58955;BME280;45815;52.334;5.024;2023-03-01T06:28:21;103049.78;;;-0.44;100.00
58955;BME280;45815;52.334;5.024;2023-03-01T06:30:47;103045.25;;;-0.47;100.00
58955;BME280;45815;52.334;5.024;2023-03-01T06:33:13;103041.59;;;-0.49;100.00
58955;BME280;45815;52.334;5.024;2023-03-01T06:35:38;103053.09;;;-0.45;100.00
58955;BME280;45815;52.334;5.024;2023-03-01T06:38:04;103039.63;;;-0.51;100.00
58955;BME280;45815;52.334;5.024;2023-03-01T06:40:30;103061.91;;;-0.43;100.00
58955;BME280;45815;52.334;5.024;2023-03-01T06:42:57;103046.75;;;-0.49;100.00
58955;BME280;45815;52.334;5.024;2023-03-01T06:45:23;103047.66;;;-0.48;100.00
58955;BME280;45815;52.334;5.024;2023-03-01T06:47:50;103055.25;;;-0.41;100.00
58955;BME280;45815;52.334;5.024;2023-03-01T06:50:17;103057.38;;;-0.37;100.00
58955;BME280;45815;52.334;5.024;2023-03-01T06:52:43;103049.16;;;-0.24;100.00
58955;BME280;45815;52.334;5.024;2023-03-01T06:55:10;103052.50;;;-0.16;100.00
58955;BME280;45815;52.334;5.024;2023-03-01T06:57:36;103052.78;;;-0.13;100.00
58955;BME280;45815;52.334;5.024;2023-03-01T07:00:05;103056.44;;;-0.11;100.00
58955;BME280;45815;52.334;5.024;2023-03-01T07:02:32;103062.78;;;-0.08;100.00
58955;BME280;45815;52.334;5.024;2023-03-01T07:04:57;103064.31;;;-0.01;100.00
58955;BME280;45815;52.334;5.024;2023-03-01T07:07:22;103061.72;;;0.16;100.00
58955;BME280;45815;52.334;5.024;2023-03-01T07:09:49;103063.63;;;0.28;100.00
58955;BME280;45815;52.334;5.024;2023-03-01T07:12:14;103064.69;;;0.30;100.00
58955;BME280;45815;52.334;5.024;2023-03-01T07:14:40;103066.22;;;0.28;100.00
58955;BME280;45815;52.334;5.024;2023-03-01T07:17:05;103070.63;;;0.29;100.00
58955;BME280;45815;52.334;5.024;2023-03-01T07:19:31;103077.91;;;0.33;100.00
58955;BME280;45815;52.334;5.024;2023-03-01T07:21:57;103078.22;;;0.36;100.00
58955;BME280;45815;52.334;5.024;2023-03-01T07:24:22;103083.03;;;0.41;100.00
58955;BME280;45815;52.334;5.024;2023-03-01T07:26:51;103082.72;;;0.47;100.00
58955;BME280;45815;52.334;5.024;2023-03-01T07:29:17;103084.06;;;0.52;100.00
58955;BME280;45815;52.334;5.024;2023-03-01T07:31:43;103090.59;;;0.57;100.00
58955;BME280;45815;52.334;5.024;2023-03-01T07:34:08;103091.19;;;0.63;100.00
58955;BME280;45815;52.334;5.024;2023-03-01T07:36:34;103090.22;;;0.72;100.00
58955;BME280;45815;52.334;5.024;2023-03-01T07:38:59;103089.28;;;0.80;100.00
58955;BME280;45815;52.334;5.024;2023-03-01T07:41:27;103094.13;;;0.86;100.00
58955;BME280;45815;52.334;5.024;2023-03-01T07:43:53;103088.59;;;0.91;100.00
58955;BME280;45815;52.334;5.024;2023-03-01T07:46:18;103083.13;;;0.97;100.00
58955;BME280;45815;52.334;5.024;2023-03-01T07:48:44;103090.06;;;1.07;100.00
58955;BME280;45815;52.334;5.024;2023-03-01T07:51:09;103087.00;;;1.11;100.00
58955;BME280;45815;52.334;5.024;2023-03-01T07:53:35;103084.69;;;1.14;100.00
58955;BME280;45815;52.334;5.024;2023-03-01T07:56:06;103079.50;;;1.14;100.00
58955;BME280;45815;52.334;5.024;2023-03-01T07:58:37;103090.00;;;1.15;100.00
58955;BME280;45815;52.334;5.024;2023-03-01T08:01:04;103092.41;;;1.22;100.00
58955;BME280;45815;52.334;5.024;2023-03-01T08:03:30;103089.94;;;1.24;100.00
58955;BME280;45815;52.334;5.024;2023-03-01T08:05:58;103090.25;;;1.27;100.00
58955;BME280;45815;52.334;5.024;2023-03-01T08:08:24;103102.06;;;1.34;100.00
58955;BME280;45815;52.334;5.024;2023-03-01T08:10:49;103096.81;;;1.42;100.00
58955;BME280;45815;52.334;5.024;2023-03-01T08:13:15;103095.06;;;1.52;100.00
58955;BME280;45815;52.334;5.024;2023-03-01T08:15:40;103087.88;;;1.58;100.00
58955;BME280;45815;52.334;5.024;2023-03-01T08:18:06;103077.47;;;1.66;100.00
58955;BME280;45815;52.334;5.024;2023-03-01T08:20:31;103082.28;;;1.72;100.00
58955;BME280;45815;52.334;5.024;2023-03-01T08:22:57;103075.97;;;1.79;100.00
58955;BME280;45815;52.334;5.024;2023-03-01T08:25:23;103075.13;;;1.88;100.00
58955;BME280;45815;52.334;5.024;2023-03-01T08:27:48;103077.13;;;2.01;100.00
58955;BME280;45815;52.334;5.024;2023-03-01T08:30:14;103073.69;;;2.11;100.00
58955;BME280;45815;52.334;5.024;2023-03-01T08:32:40;103071.16;;;2.21;100.00
58955;BME280;45815;52.334;5.024;2023-03-01T08:35:05;103076.75;;;2.36;100.00
58955;BME280;45815;52.334;5.024;2023-03-01T08:37:31;103073.59;;;2.49;100.00
58955;BME280;45815;52.334;5.024;2023-03-01T08:39:59;103077.09;;;2.60;100.00
58955;BME280;45815;52.334;5.024;2023-03-01T08:42:28;103079.59;;;2.68;100.00
58955;BME280;45815;52.334;5.024;2023-03-01T08:44:53;103068.97;;;2.75;100.00
58955;BME280;45815;52.334;5.024;2023-03-01T08:47:18;103070.03;;;2.88;100.00
58955;BME280;45815;52.334;5.024;2023-03-01T08:49:44;103070.16;;;3.00;100.00
58955;BME280;45815;52.334;5.024;2023-03-01T08:52:09;103067.97;;;3.14;100.00
58955;BME280;45815;52.334;5.024;2023-03-01T08:54:35;103075.75;;;3.25;100.00
58955;BME280;45815;52.334;5.024;2023-03-01T08:57:03;103071.72;;;3.38;100.00
58955;BME280;45815;52.334;5.024;2023-03-01T08:59:28;103074.69;;;3.53;100.00
58955;BME280;45815;52.334;5.024;2023-03-01T09:01:55;103069.75;;;3.67;100.00
58955;BME280;45815;52.334;5.024;2023-03-01T09:04:20;103058.03;;;3.82;100.00
58955;BME280;45815;52.334;5.024;2023-03-01T09:06:46;103056.69;;;3.97;100.00
58955;BME280;45815;52.334;5.024;2023-03-01T09:09:14;103050.28;;;4.04;100.00
58955;BME280;45815;52.334;5.024;2023-03-01T09:11:40;103040.25;;;4.09;100.00
58955;BME280;45815;52.334;5.024;2023-03-01T09:14:06;103047.97;;;4.29;100.00
58955;BME280;45815;52.334;5.024;2023-03-01T09:16:32;103044.25;;;4.48;100.00
58955;BME280;45815;52.334;5.024;2023-03-01T09:19:02;103046.25;;;4.62;100.00
58955;BME280;45815;52.334;5.024;2023-03-01T09:21:28;103040.41;;;4.76;100.00
58955;BME280;45815;52.334;5.024;2023-03-01T09:23:56;103032.75;;;4.78;100.00
58955;BME280;45815;52.334;5.024;2023-03-01T09:26:22;103000.84;;;4.80;100.00
58955;BME280;45815;52.334;5.024;2023-03-01T09:28:50;103023.56;;;5.17;100.00
58955;BME280;45815;52.334;5.024;2023-03-01T09:31:16;103025.63;;;5.33;100.00
58955;BME280;45815;52.334;5.024;2023-03-01T09:33:45;103025.19;;;5.50;100.00
58955;BME280;45815;52.334;5.024;2023-03-01T09:36:12;103024.75;;;5.67;100.00
58955;BME280;45815;52.334;5.024;2023-03-01T09:38:39;103020.25;;;6.00;100.00
58955;BME280;45815;52.334;5.024;2023-03-01T09:41:26;103024.53;;;6.23;100.00
58955;BME280;45815;52.334;5.024;2023-03-01T09:44:00;103019.69;;;6.41;100.00
58955;BME280;45815;52.334;5.024;2023-03-01T09:46:31;103015.25;;;6.52;100.00
58955;BME280;45815;52.334;5.024;2023-03-01T09:49:02;102999.34;;;6.24;100.00
58955;BME280;45815;52.334;5.024;2023-03-01T09:51:33;103021.34;;;6.16;100.00
58955;BME280;45815;52.334;5.024;2023-03-01T09:54:01;103015.00;;;6.24;100.00
58955;BME280;45815;52.334;5.024;2023-03-01T09:56:33;103012.19;;;6.46;100.00
58955;BME280;45815;52.334;5.024;2023-03-01T10:09:47;102999.38;;;6.74;100.00
58955;BME280;45815;52.334;5.024;2023-03-01T10:12:16;103006.81;;;6.81;100.00
58955;BME280;45815;52.334;5.024;2023-03-01T10:14:51;103010.44;;;6.83;100.00
58955;BME280;45815;52.334;5.024;2023-03-01T10:20:22;103006.09;;;6.95;100.00
58955;BME280;45815;52.334;5.024;2023-03-01T10:22:48;102999.00;;;7.19;100.00
58955;BME280;45815;52.334;5.024;2023-03-01T10:25:36;102991.19;;;7.19;100.00
58955;BME280;45815;52.334;5.024;2023-03-01T10:28:35;102993.13;;;7.35;100.00
58955;BME280;45815;52.334;5.024;2023-03-01T10:31:12;102984.25;;;7.47;100.00
58955;BME280;45815;52.334;5.024;2023-03-01T10:33:39;102984.28;;;7.60;100.00
58955;BME280;45815;52.334;5.024;2023-03-01T10:36:05;102988.31;;;7.68;100.00
58955;BME280;45815;52.334;5.024;2023-03-01T10:38:47;102978.25;;;7.61;100.00
58955;BME280;45815;52.334;5.024;2023-03-01T10:41:13;102984.16;;;7.72;100.00
58955;BME280;45815;52.334;5.024;2023-03-01T10:43:47;102981.66;;;7.73;100.00
58955;BME280;45815;52.334;5.024;2023-03-01T10:51:41;102953.38;;;7.81;100.00
58955;BME280;45815;52.334;5.024;2023-03-01T10:56:57;102950.22;;;8.00;100.00
58955;BME280;45815;52.334;5.024;2023-03-01T10:59:27;102949.81;;;8.07;100.00
58955;BME280;45815;52.334;5.024;2023-03-01T11:02:21;102946.59;;;8.11;100.00
58955;BME280;45815;52.334;5.024;2023-03-01T11:05:16;102939.72;;;8.27;100.00
58955;BME280;45815;52.334;5.024;2023-03-01T11:10:36;102929.59;;;8.46;100.00
58955;BME280;45815;52.334;5.024;2023-03-01T11:15:41;102937.59;;;8.77;100.00
58955;BME280;45815;52.334;5.024;2023-03-01T11:18:21;102929.91;;;8.65;100.00
58955;BME280;45815;52.334;5.024;2023-03-01T11:20:48;102931.72;;;8.81;100.00
58955;BME280;45815;52.334;5.024;2023-03-01T11:23:15;102932.09;;;8.87;100.00
58955;BME280;45815;52.334;5.024;2023-03-01T11:25:43;102905.00;;;8.87;100.00
58955;BME280;45815;52.334;5.024;2023-03-01T11:28:14;102910.06;;;9.14;100.00
58955;BME280;45815;52.334;5.024;2023-03-01T11:31:00;102906.97;;;9.21;100.00
58955;BME280;45815;52.334;5.024;2023-03-01T11:36:34;102901.69;;;9.50;100.00
58955;BME280;45815;52.334;5.024;2023-03-01T11:41:42;102896.28;;;9.95;100.00
58955;BME280;45815;52.334;5.024;2023-03-01T11:44:17;102898.25;;;10.15;100.00
58955;BME280;45815;52.334;5.024;2023-03-01T11:52:35;102895.44;;;10.78;100.00
58955;BME280;45815;52.334;5.024;2023-03-01T11:55:41;102896.09;;;11.08;100.00
58955;BME280;45815;52.334;5.024;2023-03-01T11:58:44;102884.22;;;11.34;100.00
58955;BME280;45815;52.334;5.024;2023-03-01T12:01:21;102869.44;;;11.74;100.00
58955;BME280;45815;52.334;5.024;2023-03-01T12:08:59;102871.50;;;12.38;100.00
58955;BME280;45815;52.334;5.024;2023-03-01T12:17:21;102863.16;;;12.88;100.00
58955;BME280;45815;52.334;5.024;2023-03-01T12:32:54;102845.47;;;13.73;92.10
58955;BME280;45815;52.334;5.024;2023-03-01T12:46:49;102840.31;;;14.24;88.44
58955;BME280;45815;52.334;5.024;2023-03-01T12:49:31;102826.81;;;13.92;84.44
58955;BME280;45815;52.334;5.024;2023-03-01T12:54:38;102844.22;;;14.60;87.23
58955;BME280;45815;52.334;5.024;2023-03-01T12:57:30;102835.00;;;14.48;81.27
58955;BME280;45815;52.334;5.024;2023-03-01T13:03:02;102824.16;;;14.41;80.41
58955;BME280;45815;52.334;5.024;2023-03-01T13:05:42;102821.50;;;14.65;80.42
58955;BME280;45815;52.334;5.024;2023-03-01T13:08:21;102816.13;;;14.62;79.96
58955;BME280;45815;52.334;5.024;2023-03-01T13:10:53;102807.13;;;14.56;81.37
58955;BME280;45815;52.334;5.024;2023-03-01T13:13:26;102794.75;;;14.55;81.71
58955;BME280;45815;52.334;5.024;2023-03-01T13:15:53;102798.66;;;14.67;82.76
58955;BME280;45815;52.334;5.024;2023-03-01T13:20:49;102790.47;;;14.59;80.11
58955;BME280;45815;52.334;5.024;2023-03-01T13:33:48;102770.69;;;14.48;80.30
58955;BME280;45815;52.334;5.024;2023-03-01T13:46:48;102764.59;;;13.51;86.12
58955;BME280;45815;52.334;5.024;2023-03-01T13:49:18;102748.81;;;13.07;87.41
58955;BME280;45815;52.334;5.024;2023-03-01T13:51:48;102757.44;;;12.60;87.80
58955;BME280;45815;52.334;5.024;2023-03-01T13:54:16;102754.63;;;12.34;91.04
58955;BME280;45815;52.334;5.024;2023-03-01T13:56:43;102743.00;;;12.10;93.01
58955;BME280;45815;52.334;5.024;2023-03-01T13:59:13;102747.09;;;12.03;93.02
58955;BME280;45815;52.334;5.024;2023-03-01T14:01:39;102734.78;;;11.82;92.93
58955;BME280;45815;52.334;5.024;2023-03-01T14:04:21;102734.78;;;11.63;89.41
58955;BME280;45815;52.334;5.024;2023-03-01T14:06:46;102740.53;;;11.74;92.68
58955;BME280;45815;52.334;5.024;2023-03-01T14:09:19;102739.69;;;11.75;88.82
58955;BME280;45815;52.334;5.024;2023-03-01T14:14:42;102719.78;;;11.99;88.63
58955;BME280;45815;52.334;5.024;2023-03-01T14:17:41;102709.66;;;11.89;87.24
58955;BME280;45815;52.334;5.024;2023-03-01T14:20:20;102705.91;;;12.03;87.26
58955;BME280;45815;52.334;5.024;2023-03-01T14:22:48;102704.78;;;12.18;88.94
58955;BME280;45815;52.334;5.024;2023-03-01T14:27:59;102701.53;;;12.04;87.18
58955;BME280;45815;52.334;5.024;2023-03-01T14:30:37;102690.16;;;12.05;84.57
58955;BME280;45815;52.334;5.024;2023-03-01T14:38:27;102682.00;;;11.39;87.96
58955;BME280;45815;52.334;5.024;2023-03-01T14:40:54;102688.81;;;10.78;87.93
58955;BME280;45815;52.334;5.024;2023-03-01T14:43:23;102682.25;;;11.06;90.75
58955;BME280;45815;52.334;5.024;2023-03-01T14:45:51;102679.19;;;10.97;91.38
58955;BME280;45815;52.334;5.024;2023-03-01T14:48:16;102659.28;;;11.02;90.56
58955;BME280;45815;52.334;5.024;2023-03-01T14:50:44;102672.34;;;11.01;92.57
58955;BME280;45815;52.334;5.024;2023-03-01T14:53:23;102658.72;;;10.90;93.58
58955;BME280;45815;52.334;5.024;2023-03-01T14:55:59;102661.00;;;11.02;94.72
58955;BME280;45815;52.334;5.024;2023-03-01T14:58:27;102663.72;;;11.23;94.46
58955;BME280;45815;52.334;5.024;2023-03-01T15:00:58;102666.91;;;11.35;94.27